Time;durP1;ratioP1;P1;durP2;ratioP2;P2;SDS_P1;SDS_P2;PMS_P1;PMS_P2;Temp;Humidity;BMP_temperature;BMP_pressure;BME280_temperature;BME280_humidity;BME280_pressure;Samples;Min_cycle;Max_cycle;Signal;HPM_P1;HPM_P2
2022/01/31 00:00:52;;;;;;;14.93;2.17;;;;;;;4.33;47.21;99863.81;4495164;31;33995;-63
2022/01/31 00:03:20;;;;;;;9.93;1.77;;;;;;;4.31;46.92;99865.38;4489640;31;33722;-65
2022/01/31 00:05:48;;;;;;;10.45;1.60;;;;;;;4.09;47.68;99879.22;4487266;32;33986;-64
2022/01/31 00:08:21;;;;;;;15.43;1.73;;;;;;;4.37;47.13;99865.81;4497889;31;34194;-65
2022/01/31 00:10:49;;;;;;;10.27;1.50;;;;;;;4.22;47.46;99874.97;4495890;31;34271;-64
2022/01/31 00:13:26;;;;;;;7.32;1.80;;;;;;;4.16;47.47;99874.56;4498018;31;33720;-66
2022/01/31 00:15:56;;;;;;;12.35;1.80;;;;;;;4.05;47.74;99892.59;4491638;31;33663;-64
2022/01/31 00:18:24;;;;;;;10.35;1.37;;;;;;;4.11;48.02;99887.94;4497616;31;32998;-64
2022/01/31 00:20:52;;;;;;;11.12;2.60;;;;;;;3.98;48.10;99886.91;4490138;31;34204;-64
2022/01/31 00:23:20;;;;;;;12.48;2.00;;;;;;;3.98;47.85;99875.00;4499069;31;32399;-65
2022/01/31 00:25:48;;;;;;;8.05;1.62;;;;;;;3.88;48.07;99872.56;4494670;31;33938;-65
2022/01/31 00:28:15;;;;;;;17.23;2.50;;;;;;;4.11;47.72;99877.69;4497672;31;34773;-63
2022/01/31 00:30:43;;;;;;;9.63;1.52;;;;;;;3.95;47.80;99859.41;4494658;31;33574;-64
2022/01/31 00:33:10;;;;;;;14.32;2.50;;;;;;;4.00;47.90;99867.41;4498968;31;34444;-63
2022/01/31 00:35:37;;;;;;;7.35;1.65;;;;;;;4.13;47.33;99859.81;4489516;31;33952;-66
2022/01/31 00:38:08;;;;;;;13.18;2.03;;;;;;;3.86;47.76;99862.22;4501518;31;33816;-64
2022/01/31 00:40:41;;;;;;;11.00;2.45;;;;;;;3.64;48.57;99848.63;4489482;31;33845;-65
2022/01/31 00:43:14;;;;;;;10.73;2.12;;;;;;;3.93;47.76;99840.47;4502115;31;33713;-64
2022/01/31 00:45:57;;;;;;;8.73;2.33;;;;;;;3.81;47.70;99831.91;4495053;31;33661;-65
2022/01/31 00:48:26;;;;;;;13.55;1.83;;;;;;;4.20;46.99;99841.53;4498912;31;34436;-65
2022/01/31 00:50:54;;;;;;;11.48;1.65;;;;;;;3.96;47.12;99824.41;4491184;31;33348;-64
2022/01/31 00:53:21;;;;;;;7.95;1.75;;;;;;;4.09;46.88;99827.94;4494737;31;33915;-65
2022/01/31 00:55:49;;;;;;;10.95;1.70;;;;;;;4.04;46.81;99819.06;4502557;31;33582;-64
2022/01/31 00:58:17;;;;;;;3.70;1.17;;;;;;;3.93;47.57;99827.66;4491339;31;33990;-64
2022/01/31 01:00:44;;;;;;;9.00;1.87;;;;;;;4.06;46.96;99837.12;4497647;31;33223;-64
2022/01/31 01:03:12;;;;;;;12.02;2.33;;;;;;;4.17;46.77;99830.16;4489437;31;33889;-65
2022/01/31 01:05:40;;;;;;;13.82;2.10;;;;;;;4.33;46.22;99825.34;4493825;31;33490;-65
2022/01/31 01:08:07;;;;;;;13.05;2.15;;;;;;;4.03;46.81;99837.78;4492063;31;34077;-64
2022/01/31 01:10:35;;;;;;;17.87;1.67;;;;;;;3.61;47.55;99841.63;4499268;31;34200;-63
2022/01/31 01:13:03;;;;;;;11.12;2.10;;;;;;;4.23;46.22;99841.75;4491132;31;34654;-64
2022/01/31 01:15:30;;;;;;;11.40;2.00;;;;;;;4.16;46.70;99843.78;4492730;31;34554;-64
2022/01/31 01:17:59;;;;;;;11.82;2.17;;;;;;;3.68;47.25;99859.19;4494735;31;34924;-65
2022/01/31 01:20:26;;;;;;;10.15;1.83;;;;;;;4.01;46.87;99864.97;4501997;31;33668;-64
2022/01/31 01:22:54;;;;;;;10.00;1.98;;;;;;;3.52;47.69;99866.53;4488854;31;33856;-65
2022/01/31 01:25:22;;;;;;;12.80;1.60;;;;;;;3.60;47.58;99857.75;4491045;31;33720;-64
2022/01/31 01:27:52;;;;;;;14.38;2.87;;;;;;;3.62;47.16;99863.87;4493362;31;33493;-65
2022/01/31 01:30:20;;;;;;;12.70;2.30;;;;;;;3.22;48.00;99858.34;4494454;31;34100;-64
2022/01/31 01:35:29;;;;;;;17.42;2.00;;;;;;;3.68;47.12;99859.19;4491105;31;33915;-63
2022/01/31 01:37:59;;;;;;;11.00;1.95;;;;;;;3.72;47.39;99861.19;4494769;31;34661;-64
2022/01/31 01:40:27;;;;;;;12.05;2.45;;;;;;;3.95;47.05;99856.84;4495861;31;36321;-63
2022/01/31 01:42:54;;;;;;;14.38;1.95;;;;;;;3.21;47.86;99846.34;4489115;31;33781;-64
2022/01/31 01:45:22;;;;;;;15.25;1.67;;;;;;;3.19;47.88;99850.47;4500843;31;33864;-63
2022/01/31 01:47:50;;;;;;;9.93;2.10;;;;;;;3.66;47.28;99840.25;4493987;31;33176;-65
2022/01/31 01:50:17;;;;;;;13.52;1.98;;;;;;;3.61;47.16;99836.50;4501284;31;33215;-65
2022/01/31 01:52:45;;;;;;;13.38;1.87;;;;;;;3.59;47.12;99814.97;4488859;31;34489;-64
2022/01/31 01:55:12;;;;;;;9.48;1.73;;;;;;;3.99;46.24;99822.06;4498095;31;33956;-65
2022/01/31 01:57:40;;;;;;;10.40;1.90;;;;;;;3.62;47.28;99806.62;4493615;31;34532;-64
2022/01/31 02:00:15;;;;;;;12.77;2.15;;;;;;;4.05;46.35;99796.88;4481262;31;31818;-65
2022/01/31 02:02:43;;;;;;;12.73;2.20;;;;;;;3.86;46.36;99797.25;4472515;26;33968;-87
2022/01/31 02:05:13;;;;;;;12.45;2.03;;;;;;;3.72;46.96;99791.12;4424262;32;33644;-86
2022/01/31 02:07:40;;;;;;;9.10;2.05;;;;;;;3.33;47.84;99774.69;4453316;26;34116;-66
2022/01/31 02:10:09;;;;;;;12.48;2.10;;;;;;;3.32;47.70;99781.47;4451965;32;34580;-66
2022/01/31 02:12:41;;;;;;;13.55;3.40;;;;;;;3.08;48.12;99789.91;4453185;32;34611;-64
2022/01/31 02:15:09;;;;;;;10.98;2.22;;;;;;;3.59;47.34;99789.34;4454369;32;32263;-66
2022/01/31 02:17:41;;;;;;;15.48;2.03;;;;;;;3.55;47.51;99795.03;4453797;32;32394;-66
2022/01/31 02:20:10;;;;;;;12.95;2.42;;;;;;;3.28;47.91;99782.03;4447755;32;31800;-67
2022/01/31 02:22:37;;;;;;;13.40;2.28;;;;;;;3.65;47.68;99792.38;4447985;32;33898;-64
2022/01/31 02:25:07;;;;;;;13.65;1.75;;;;;;;3.24;48.32;99795.37;4453304;32;32623;-64
2022/01/31 02:27:37;;;;;;;15.00;2.08;;;;;;;3.18;48.62;99802.59;4454130;32;33928;-66
2022/01/31 02:30:08;;;;;;;18.12;2.42;;;;;;;3.21;48.84;99797.72;4453286;32;33327;-63
2022/01/31 02:32:38;;;;;;;10.75;2.20;;;;;;;3.21;49.13;99797.72;4454325;32;34754;-66
2022/01/31 02:35:07;;;;;;;11.80;2.40;;;;;;;3.77;48.27;99788.88;4447640;32;34461;-65
2022/01/31 02:37:34;;;;;;;13.23;2.72;;;;;;;3.39;48.80;99793.03;4454508;32;34610;-64
2022/01/31 02:40:03;;;;;;;16.30;2.30;;;;;;;3.05;49.64;99779.44;4453837;32;34392;-65
2022/01/31 02:42:31;;;;;;;9.35;1.85;;;;;;;3.24;49.32;99782.56;4445307;32;33905;-66
2022/01/31 02:44:58;;;;;;;12.25;2.78;;;;;;;3.74;48.29;99776.75;4452823;32;33856;-65
2022/01/31 02:47:29;;;;;;;14.23;2.20;;;;;;;3.14;49.25;99764.75;4454919;32;34448;-67
2022/01/31 02:50:00;;;;;;;12.93;2.10;;;;;;;3.14;49.24;99765.66;4453804;32;33479;-65
2022/01/31 02:52:32;;;;;;;9.48;2.03;;;;;;;3.27;48.58;99754.66;4450476;32;34481;-66
2022/01/31 02:55:02;;;;;;;13.10;2.40;;;;;;;3.30;49.01;99752.31;4453970;32;33639;-63
2022/01/31 02:57:30;;;;;;;12.52;1.90;;;;;;;3.23;49.01;99744.09;4454199;32;34121;-66
2022/01/31 02:59:58;;;;;;;12.15;2.42;;;;;;;3.29;48.75;99749.66;4453500;32;33569;-66
2022/01/31 03:02:27;;;;;;;15.23;5.15;;;;;;;3.34;48.50;99744.06;4451099;32;33918;-66
2022/01/31 03:04:54;;;;;;;10.48;2.17;;;;;;;3.34;48.91;99733.84;4454014;32;33664;-67
2022/01/31 03:07:22;;;;;;;9.15;1.80;;;;;;;3.46;48.46;99723.56;4448551;32;33796;-64
2022/01/31 03:09:50;;;;;;;10.27;1.75;;;;;;;3.43;48.66;99727.59;4454346;32;33194;-64
2022/01/31 03:12:18;;;;;;;11.70;2.33;;;;;;;3.21;48.71;99725.16;4453911;32;34612;-65
2022/01/31 03:14:46;;;;;;;12.32;2.95;;;;;;;3.29;48.61;99734.28;4443919;32;34505;-64
2022/01/31 03:17:23;;;;;;;16.52;2.25;;;;;;;3.12;49.13;99740.72;4442607;32;32037;-64
2022/01/31 03:19:53;;;;;;;14.45;2.65;;;;;;;3.16;48.79;99742.72;4454025;32;33309;-66
2022/01/31 03:22:23;;;;;;;10.98;2.60;;;;;;;3.15;48.72;99731.59;4451015;32;33938;-65
2022/01/31 03:24:50;;;;;;;13.62;2.60;;;;;;;3.43;48.03;99738.72;4451522;32;33752;-63
2022/01/31 03:27:18;;;;;;;13.77;2.45;;;;;;;3.29;48.47;99724.91;4453438;32;33899;-62
2022/01/31 03:29:46;;;;;;;17.12;2.83;;;;;;;3.27;48.49;99721.38;4453950;32;33256;-65
2022/01/31 03:32:13;;;;;;;7.15;1.98;;;;;;;3.30;48.26;99726.72;4452516;32;33802;-66
2022/01/31 03:34:40;;;;;;;14.65;2.75;;;;;;;3.40;48.39;99729.91;4454263;32;33937;-65
2022/01/31 03:37:08;;;;;;;11.70;2.72;;;;;;;3.37;48.08;99717.78;4454059;32;34435;-67
2022/01/31 03:39:36;;;;;;;14.75;2.33;;;;;;;3.52;47.82;99728.25;4445661;32;33297;-64
2022/01/31 03:42:04;;;;;;;17.77;2.20;;;;;;;3.42;47.37;99720.66;4450633;32;33109;-66
2022/01/31 03:44:32;;;;;;;11.05;2.03;;;;;;;3.55;47.22;99718.22;4455573;32;34713;-62
2022/01/31 03:47:00;;;;;;;7.43;1.77;;;;;;;3.48;47.44;99718.56;4455166;32;34045;-64
2022/01/31 03:49:27;;;;;;;15.95;1.92;;;;;;;3.58;46.78;99723.56;4455847;32;33733;-66
2022/01/31 03:51:56;;;;;;;10.93;2.95;;;;;;;3.71;46.64;99715.09;4454833;32;33864;-65
2022/01/31 03:54:31;;;;;;;12.10;2.12;;;;;;;3.87;46.34;99728.16;4455175;32;34004;-63
2022/01/31 03:56:59;;;;;;;12.95;2.25;;;;;;;3.72;46.39;99735.66;4454851;32;33713;-66
2022/01/31 03:59:28;;;;;;;14.15;2.60;;;;;;;3.72;46.21;99717.72;4448161;32;33540;-64
2022/01/31 04:01:56;;;;;;;11.75;2.03;;;;;;;4.11;45.49;99717.84;4451239;32;33868;-63
2022/01/31 04:04:24;;;;;;;8.98;1.50;;;;;;;3.83;45.84;99710.81;4449647;32;33816;-64
2022/01/31 04:06:51;;;;;;;9.40;2.08;;;;;;;4.25;45.01;99693.12;4454947;32;33575;-63
2022/01/31 04:09:19;;;;;;;8.48;1.80;;;;;;;4.17;45.12;99691.72;4455499;32;33579;-66
2022/01/31 04:11:46;;;;;;;7.70;2.00;;;;;;;3.93;45.51;99679.03;4454159;32;34664;-65
2022/01/31 04:14:13;;;;;;;11.18;1.60;;;;;;;4.13;45.21;99672.69;4453224;32;33768;-64
2022/01/31 04:16:41;;;;;;;12.88;2.22;;;;;;;3.87;45.39;99666.66;4452363;32;33808;-66
2022/01/31 04:19:08;;;;;;;12.60;2.17;;;;;;;4.19;44.43;99679.91;4455498;32;33662;-63
2022/01/31 04:21:36;;;;;;;8.13;2.12;;;;;;;3.95;45.17;99674.88;4454946;32;34532;-65
2022/01/31 04:24:03;;;;;;;12.32;2.60;;;;;;;4.12;44.72;99669.25;4454894;32;33823;-67
2022/01/31 04:26:34;;;;;;;13.55;2.00;;;;;;;3.87;44.54;99658.09;4454438;32;33990;-65
2022/01/31 04:29:05;;;;;;;10.15;1.60;;;;;;;3.98;44.47;99654.59;4455547;32;32712;-66
2022/01/31 04:31:41;;;;;;;8.77;1.70;;;;;;;4.13;44.45;99662.44;4454223;32;34617;-65
2022/01/31 04:34:09;;;;;;;14.60;2.35;;;;;;;4.32;43.58;99646.62;4447599;32;33887;-64
2022/01/31 04:36:36;;;;;;;10.70;2.08;;;;;;;4.22;44.05;99659.59;4455244;32;34812;-64
2022/01/31 04:39:03;;;;;;;10.45;1.98;;;;;;;4.13;44.09;99665.91;4455640;32;33754;-65
2022/01/31 04:41:31;;;;;;;14.50;2.25;;;;;;;4.24;44.08;99689.69;4453001;32;33844;-63
2022/01/31 04:44:04;;;;;;;9.05;2.35;;;;;;;4.20;44.11;99676.56;4454340;32;33665;-66
2022/01/31 04:46:31;;;;;;;12.95;2.25;;;;;;;3.68;44.97;99679.88;4443841;32;33150;-64
2022/01/31 04:48:59;;;;;;;8.88;2.17;;;;;;;3.89;44.83;99679.59;4450273;32;31899;-65
2022/01/31 04:51:26;;;;;;;9.73;1.60;;;;;;;4.17;43.99;99660.97;4454640;32;34471;-66
2022/01/31 04:53:53;;;;;;;8.98;1.60;;;;;;;4.14;44.21;99639.47;4447485;32;34658;-63
2022/01/31 04:56:21;;;;;;;9.77;1.90;;;;;;;4.01;44.68;99639.41;4445902;32;33972;-65
2022/01/31 04:58:48;;;;;;;13.55;2.03;;;;;;;4.21;44.35;99634.75;4439832;32;33319;-66
2022/01/31 05:01:15;;;;;;;13.82;2.42;;;;;;;4.04;44.95;99629.38;4447818;32;33935;-66
2022/01/31 05:03:45;;;;;;;13.30;2.58;;;;;;;3.74;45.76;99623.94;4447551;32;32444;-67
2022/01/31 05:06:16;;;;;;;16.85;3.05;;;;;;;3.93;45.78;99635.44;4454168;32;33919;-66
2022/01/31 05:08:43;;;;;;;10.55;2.58;;;;;;;3.56;46.49;99653.41;4449863;32;33521;-65
2022/01/31 05:11:12;;;;;;;13.27;2.95;;;;;;;3.15;47.11;99659.06;4450666;32;33810;-67
2022/01/31 05:13:39;;;;;;;11.95;2.87;;;;;;;2.98;47.77;99649.28;4450836;32;33896;-66
2022/01/31 05:16:06;;;;;;;12.88;2.75;;;;;;;3.05;47.73;99656.59;4448062;32;32493;-66
2022/01/31 05:18:34;;;;;;;15.25;2.65;;;;;;;3.12;47.57;99648.59;4447332;32;33443;-65
2022/01/31 05:21:01;;;;;;;17.23;3.00;;;;;;;2.89;47.96;99649.50;4453775;32;34596;-63
2022/01/31 05:23:29;;;;;;;14.52;2.95;;;;;;;3.10;47.63;99645.91;4454997;32;33893;-67
2022/01/31 05:25:57;;;;;;;12.18;1.83;;;;;;;2.99;47.93;99651.03;4448891;32;34970;-63
2022/01/31 05:28:24;;;;;;;14.63;2.65;;;;;;;2.89;48.22;99637.59;4455060;32;33634;-64
2022/01/31 05:30:51;;;;;;;18.62;3.15;;;;;;;2.81;48.35;99633.59;4447398;32;33815;-64
2022/01/31 05:33:18;;;;;;;10.88;2.00;;;;;;;2.88;48.31;99617.91;4451485;32;33964;-65
2022/01/31 05:35:46;;;;;;;12.40;1.98;;;;;;;3.08;47.97;99601.41;4445801;32;33680;-65
2022/01/31 05:38:13;;;;;;;10.93;2.37;;;;;;;3.61;47.01;99595.72;4455010;32;33195;-64
2022/01/31 05:40:40;;;;;;;15.80;2.37;;;;;;;3.06;47.68;99591.84;4452988;32;33941;-64
2022/01/31 05:43:08;;;;;;;9.85;2.00;;;;;;;3.05;47.70;99592.62;4452497;32;34013;-65
2022/01/31 05:45:35;;;;;;;9.85;2.10;;;;;;;3.20;47.69;99591.16;4446575;32;33634;-65
2022/01/31 05:48:02;;;;;;;17.83;2.92;;;;;;;2.84;48.42;99590.34;4447817;32;33990;-64
2022/01/31 05:50:30;;;;;;;13.35;2.20;;;;;;;2.79;48.55;99580.56;4445069;32;33877;-66
2022/01/31 05:52:57;;;;;;;12.45;2.65;;;;;;;3.15;47.88;99578.03;4453161;32;34623;-66
2022/01/31 05:55:24;;;;;;;14.70;2.58;;;;;;;3.30;47.80;99578.25;4454980;32;34672;-67
2022/01/31 05:57:51;;;;;;;14.20;2.83;;;;;;;2.93;48.53;99585.84;4447970;32;31885;-65
2022/01/31 06:00:21;;;;;;;15.60;2.92;;;;;;;3.08;48.17;99586.06;4454107;32;33733;-65
2022/01/31 06:02:57;;;;;;;19.98;5.78;;;;;;;2.87;48.71;99584.53;4454509;32;34735;-66
2022/01/31 06:05:25;;;;;;;11.23;2.08;;;;;;;2.76;49.29;99594.00;4454601;32;34427;-66
2022/01/31 06:07:53;;;;;;;11.88;2.03;;;;;;;2.67;49.75;99590.78;4452980;32;33633;-64
2022/01/31 06:10:23;;;;;;;12.77;3.47;;;;;;;2.87;49.42;99589.66;4454723;32;33556;-64
2022/01/31 06:12:52;;;;;;;16.70;5.03;;;;;;;2.93;49.67;99588.41;4453836;32;34718;-63
2022/01/31 06:15:19;;;;;;;10.85;2.97;;;;;;;2.87;49.84;99594.78;4453850;32;34085;-67
2022/01/31 06:17:47;;;;;;;16.35;3.22;;;;;;;2.75;50.26;99602.47;4452580;32;33781;-65
2022/01/31 06:20:14;;;;;;;15.13;3.20;;;;;;;2.51;50.83;99592.22;4449405;32;34182;-65
2022/01/31 06:22:50;;;;;;;21.67;3.28;;;;;;;2.71;50.65;99597.91;4453721;32;34550;-62
2022/01/31 06:25:18;;;;;;;12.80;2.80;;;;;;;2.66;50.72;99597.56;4446259;32;34013;-63
2022/01/31 06:27:47;;;;;;;21.02;3.85;;;;;;;2.55;51.37;99585.69;4446440;32;33500;-62
2022/01/31 06:30:14;;;;;;;18.77;2.45;;;;;;;2.52;51.35;99585.44;4444070;32;34475;-62
2022/01/31 06:32:44;;;;;;;18.40;2.97;;;;;;;2.71;50.93;99585.12;4451773;32;36033;-64
2022/01/31 06:35:13;;;;;;;13.43;2.30;;;;;;;2.72;50.84;99589.44;4450071;32;33931;-66
2022/01/31 06:37:40;;;;;;;18.20;3.20;;;;;;;2.49;51.51;99583.56;4452702;32;35821;-65
2022/01/31 06:40:08;;;;;;;9.93;2.05;;;;;;;2.62;51.34;99571.66;4447400;32;33395;-66
2022/01/31 06:42:36;;;;;;;13.20;3.05;;;;;;;2.77;51.15;99567.66;4450003;32;34587;-65
2022/01/31 06:45:04;;;;;;;12.77;2.67;;;;;;;3.04;50.87;99557.59;4451791;32;33781;-64
2022/01/31 06:47:32;;;;;;;17.52;2.58;;;;;;;2.88;51.27;99556.50;4454365;32;34316;-66
2022/01/31 06:49:59;;;;;;;15.88;3.00;;;;;;;3.06;50.98;99550.91;4454290;32;34494;-64
2022/01/31 06:52:32;;;;;;;15.50;2.83;;;;;;;3.55;49.22;99533.81;4453376;32;34759;-62
2022/01/31 06:55:03;;;;;;;15.50;2.83;;;;;;;4.00;48.70;99542.84;4453175;32;34590;-65
2022/01/31 06:57:33;;;;;;;18.02;2.65;;;;;;;3.74;49.82;99541.94;4453799;32;33888;-65
2022/01/31 07:00:05;;;;;;;17.40;2.80;;;;;;;4.04;48.98;99534.56;4453709;32;33040;-63
2022/01/31 07:02:33;;;;;;;14.60;2.25;;;;;;;3.28;50.62;99528.59;4453475;32;33913;-64
2022/01/31 07:05:01;;;;;;;13.18;1.85;;;;;;;3.48;50.25;99527.41;4453514;32;33829;-65
2022/01/31 07:07:29;;;;;;;14.05;2.28;;;;;;;4.40;48.32;99524.03;4453545;32;33508;-63
2022/01/31 07:09:56;;;;;;;19.65;2.33;;;;;;;4.30;48.25;99496.91;4448845;32;33442;-62
2022/01/31 07:12:31;;;;;;;14.70;2.42;;;;;;;4.22;48.54;99495.53;4453703;32;34595;-63
2022/01/31 07:15:00;;;;;;;;;;;;;;;4.09;48.64;99504.97;4453715;32;33603;-64
2022/01/31 07:17:27;;;;;;;13.25;3.10;;;;;;;4.60;47.20;99509.94;4453598;32;33135;-62
2022/01/31 07:19:55;;;;;;;11.00;1.95;;;;;;;3.45;50.45;99513.50;4453060;32;33547;-64
2022/01/31 07:22:31;;;;;;;11.82;2.58;;;;;;;4.17;48.99;99512.28;4451907;32;33631;-65
2022/01/31 07:25:04;;;;;;;13.77;2.55;;;;;;;3.63;49.80;99509.62;4453998;32;34119;-65
2022/01/31 07:27:31;;;;;;;11.95;2.40;;;;;;;3.93;49.42;99512.44;4448172;32;33416;-63
2022/01/31 07:30:01;;;;;;;9.75;2.45;;;;;;;3.58;50.22;99513.53;4443589;32;33865;-64
2022/01/31 07:32:29;;;;;;;16.20;2.83;;;;;;;3.53;50.39;99515.81;4446026;32;34685;-65
2022/01/31 07:34:57;;;;;;;16.20;3.45;;;;;;;3.94;49.37;99514.25;4453463;32;34454;-65
2022/01/31 07:37:25;;;;;;;18.73;4.05;;;;;;;4.26;48.85;99502.62;4441145;32;33398;-63
2022/01/31 07:39:52;;;;;;;25.48;4.43;;;;;;;3.97;49.15;99498.16;4448778;32;32417;-63
2022/01/31 07:42:20;;;;;;;23.23;4.07;;;;;;;3.88;49.67;99490.75;4450732;32;33268;-64
2022/01/31 07:44:47;;;;;;;20.35;3.45;;;;;;;3.65;50.31;99487.56;4452194;32;34594;-65
2022/01/31 07:47:15;;;;;;;21.98;4.65;;;;;;;3.62;50.22;99489.03;4453097;32;34243;-64
2022/01/31 07:49:42;;;;;;;16.02;3.17;;;;;;;3.82;50.18;99483.53;4452577;32;33889;-64
2022/01/31 07:52:10;;;;;;;17.90;3.65;;;;;;;3.66;50.38;99486.75;4453182;32;34516;-65
2022/01/31 07:54:39;;;;;;;13.93;2.37;;;;;;;3.78;50.32;99493.50;4448862;32;33934;-63
2022/01/31 07:57:06;;;;;;;14.63;2.70;;;;;;;3.97;50.11;99493.03;4447914;32;33448;-65
2022/01/31 07:59:54;;;;;;;13.52;2.67;;;;;;;3.72;50.70;99492.28;4451237;32;33766;-63
2022/01/31 08:02:21;;;;;;;12.32;3.00;;;;;;;3.58;51.16;99503.31;4451241;32;33871;-65
2022/01/31 08:04:54;;;;;;;13.75;3.33;;;;;;;3.63;51.36;99495.91;4446604;32;33996;-64
2022/01/31 08:07:22;;;;;;;26.92;5.75;;;;;;;3.59;51.74;99488.81;4445921;32;33509;-65
2022/01/31 08:09:50;;;;;;;14.95;4.40;;;;;;;3.54;51.60;99488.50;4438940;32;33976;-64
2022/01/31 08:12:18;;;;;;;13.48;3.80;;;;;;;3.84;51.12;99488.78;4447791;32;33679;-63
2022/01/31 08:14:47;;;;;;;12.82;3.10;;;;;;;3.88;50.97;99481.41;4450156;32;33890;-65
2022/01/31 08:17:15;;;;;;;20.00;3.28;;;;;;;3.84;51.27;99481.09;4453006;32;33518;-65
2022/01/31 08:19:42;;;;;;;19.00;3.47;;;;;;;3.59;51.63;99466.63;4453062;32;33654;-65
2022/01/31 08:22:10;;;;;;;9.82;3.75;;;;;;;3.55;52.13;99456.97;4443371;32;33457;-65
2022/01/31 08:24:38;;;;;;;13.90;3.05;;;;;;;3.63;52.19;99465.19;4450557;32;34383;-63
2022/01/31 08:27:05;;;;;;;11.40;2.37;;;;;;;3.71;52.03;99457.22;4451617;32;33551;-63
2022/01/31 08:29:36;;;;;;;10.82;2.60;;;;;;;3.65;51.91;99464.50;4455724;32;33944;-63
2022/01/31 08:32:09;;;;;;;12.75;2.70;;;;;;;3.69;51.90;99451.13;4455581;32;32632;-63
2022/01/31 08:37:24;;;;;;;12.80;2.22;;;;;;;3.83;51.47;99454.59;4443959;32;33213;-63
2022/01/31 08:39:52;;;;;;;13.98;2.87;;;;;;;3.88;51.48;99463.47;4451592;32;33939;-65
2022/01/31 08:42:19;;;;;;;14.00;3.33;;;;;;;4.03;51.30;99458.44;4446651;32;33796;-64
2022/01/31 08:44:47;;;;;;;14.15;3.15;;;;;;;3.95;51.67;99464.75;4443683;32;34569;-64
2022/01/31 08:47:16;;;;;;;12.43;2.78;;;;;;;4.03;51.51;99448.19;4455227;32;34366;-63
2022/01/31 08:49:43;;;;;;;14.87;2.90;;;;;;;4.11;51.27;99449.59;4452055;32;33860;-63
2022/01/31 08:52:11;;;;;;;13.90;3.28;;;;;;;4.30;50.72;99448.19;4451905;32;33882;-65
2022/01/31 08:54:40;;;;;;;14.18;3.03;;;;;;;4.01;51.20;99452.31;4453465;32;34613;-64
2022/01/31 08:57:08;;;;;;;10.98;2.70;;;;;;;4.28;50.88;99444.66;4450954;32;33419;-63
2022/01/31 08:59:43;;;;;;;16.30;3.00;;;;;;;4.09;51.33;99450.25;4445778;32;32680;-65
2022/01/31 09:02:16;;;;;;;10.85;3.37;;;;;;;3.95;51.98;99444.25;4454280;32;33796;-64
2022/01/31 09:04:47;;;;;;;17.45;3.45;;;;;;;4.03;52.01;99432.81;4438148;32;33477;-65
2022/01/31 09:07:21;;;;;;;16.70;3.42;;;;;;;4.15;51.72;99437.84;4453401;32;33406;-64
2022/01/31 09:09:53;;;;;;;15.55;3.37;;;;;;;4.26;51.92;99435.97;4451339;32;33650;-65
2022/01/31 09:12:22;;;;;;;13.73;2.75;;;;;;;4.24;52.42;99435.88;4445492;32;33943;-65
2022/01/31 09:14:50;;;;;;;13.50;2.70;;;;;;;3.94;53.04;99439.94;4448530;32;33893;-64
2022/01/31 09:17:17;;;;;;;18.42;3.42;;;;;;;3.92;53.57;99423.53;4450980;32;33616;-65
2022/01/31 09:19:45;;;;;;;16.05;3.10;;;;;;;4.03;52.69;99427.69;4453308;32;34969;-64
2022/01/31 09:22:13;;;;;;;11.90;2.17;;;;;;;4.21;52.26;99421.97;4446590;32;34063;-65
2022/01/31 09:24:42;;;;;;;13.50;2.92;;;;;;;3.97;52.54;99424.72;4448759;32;33843;-63
2022/01/31 09:27:13;;;;;;;14.73;3.03;;;;;;;4.13;52.61;99422.37;4450033;32;34098;-64
2022/01/31 09:29:40;;;;;;;8.13;3.10;;;;;;;4.11;52.40;99421.41;4443739;32;33032;-63
2022/01/31 09:32:10;;;;;;;11.80;3.15;;;;;;;4.02;52.60;99415.66;4451379;32;33575;-64
2022/01/31 09:34:40;;;;;;;11.55;2.60;;;;;;;4.25;52.17;99400.84;4452457;32;33183;-63
2022/01/31 09:37:08;;;;;;;11.65;2.50;;;;;;;4.77;50.63;99401.56;4444255;32;33243;-63
2022/01/31 09:39:36;;;;;;;9.18;3.08;;;;;;;5.34;49.17;99386.09;4450649;32;33350;-63
2022/01/31 09:42:08;;;;;;;11.07;2.67;;;;;;;5.82;47.78;99361.44;4448506;32;34650;-64
2022/01/31 09:49:46;;;;;;;10.85;2.90;;;;;;;5.31;48.13;99364.56;4448177;32;33204;-65
2022/01/31 09:52:14;;;;;;;14.90;3.47;;;;;;;5.74;47.18;99353.31;4446309;32;33647;-64
2022/01/31 09:54:42;;;;;;;13.77;3.28;;;;;;;6.24;45.91;99338.94;4450541;32;34628;-65
2022/01/31 09:57:10;;;;;;;11.12;3.10;;;;;;;6.10;45.89;99323.66;4450949;32;34271;-64
2022/01/31 09:59:38;;;;;;;10.77;2.83;;;;;;;5.28;47.16;99331.00;4452459;32;34684;-63
2022/01/31 10:02:10;;;;;;;12.15;2.92;;;;;;;5.03;47.79;99330.34;4445896;32;32639;-64
2022/01/31 10:04:43;;;;;;;10.80;2.70;;;;;;;5.77;46.87;99312.34;4445427;32;34020;-64
2022/01/31 10:07:13;;;;;;;13.93;3.22;;;;;;;5.55;47.19;99315.41;4447650;32;34220;-64
2022/01/31 10:09:49;;;;;;;18.73;3.00;;;;;;;4.81;48.09;99311.12;4454529;32;34709;-63
2022/01/31 10:12:31;;;;;;;9.90;2.20;;;;;;;4.80;48.38;99318.72;4454369;32;33895;-63
2022/01/31 10:17:45;;;;;;;12.63;3.22;;;;;;;5.88;46.88;99300.09;4452441;32;33243;-63
2022/01/31 10:20:20;;;;;;;10.05;2.87;;;;;;;6.34;45.87;99300.06;4446462;32;33880;-64
2022/01/31 10:22:47;;;;;;;12.05;2.37;;;;;;;6.09;45.71;99305.56;4447923;32;34746;-64
2022/01/31 10:25:17;;;;;;;12.18;2.92;;;;;;;6.75;44.38;99293.59;4446750;32;34544;-64
2022/01/31 10:28:31;;;;;;;12.90;3.12;;;;;;;5.98;46.16;99281.81;4446641;32;34365;-63
2022/01/31 10:30:59;;;;;;;12.68;3.83;;;;;;;6.45;44.87;99265.50;4438712;32;33873;-64
2022/01/31 10:33:30;;;;;;;11.77;3.10;;;;;;;5.61;46.97;99264.34;4447948;32;34764;-63
2022/01/31 10:35:57;;;;;;;11.57;2.72;;;;;;;5.14;47.40;99260.00;4444988;32;33799;-64
2022/01/31 10:38:33;;;;;;;17.95;3.17;;;;;;;5.84;46.36;99252.78;4451111;32;33382;-64
2022/01/31 10:50:43;;;;;;;13.38;3.90;;;;;;;5.48;47.05;99249.03;4449905;32;34631;-63
2022/01/31 10:52:23;;;;;;;10.30;2.65;;;;;;;5.38;47.39;99223.66;4447687;32;33867;-64
2022/01/31 10:54:52;;;;;;;12.73;2.78;;;;;;;5.51;47.20;99221.84;4454238;32;33651;-63
2022/01/31 10:57:22;;;;;;;11.10;2.10;;;;;;;5.82;46.29;99212.38;4454351;32;33839;-64
2022/01/31 10:59:51;;;;;;;9.77;2.53;;;;;;;5.96;45.76;99211.44;4454295;32;34291;-63
2022/01/31 11:02:21;;;;;;;12.40;3.28;;;;;;;5.45;46.37;99206.09;4449059;32;34550;-64
2022/01/31 11:04:50;;;;;;;14.60;2.72;;;;;;;5.80;46.18;99208.84;4448757;32;33143;-64
2022/01/31 11:07:23;;;;;;;10.05;2.83;;;;;;;5.36;47.11;99205.59;4453891;32;34383;-62
2022/01/31 11:09:52;;;;;;;17.60;3.25;;;;;;;4.61;48.16;99198.72;4451739;32;34154;-64
2022/01/31 11:12:23;;;;;;;10.45;3.35;;;;;;;5.15;47.59;99189.84;4444255;32;32077;-63
2022/01/31 11:14:53;;;;;;;9.60;2.95;;;;;;;5.71;46.24;99194.66;4446745;32;33973;-64
2022/01/31 11:17:22;;;;;;;15.93;4.90;;;;;;;5.34;47.09;99189.22;4452699;32;33713;-64
2022/01/31 11:19:56;;;;;;;16.83;3.50;;;;;;;5.01;47.28;99170.25;4453415;32;33681;-64
2022/01/31 11:22:36;;;;;;;13.23;2.92;;;;;;;4.90;47.29;99152.53;4444283;32;34468;-63
2022/01/31 11:25:19;;;;;;;9.38;2.62;;;;;;;5.97;46.08;99138.69;4449056;32;34832;-63
2022/01/31 11:27:52;;;;;;;14.10;4.10;;;;;;;5.53;46.15;99129.47;4437335;32;33075;-63
2022/01/31 11:30:22;;;;;;;14.63;4.37;;;;;;;6.05;45.33;99116.81;4453436;32;34120;-64
2022/01/31 11:32:49;;;;;;;13.30;4.40;;;;;;;5.23;46.21;99106.44;4452167;32;33189;-64
2022/01/31 11:35:17;;;;;;;15.23;3.00;;;;;;;5.66;45.85;99098.47;4439464;32;34849;-63
2022/01/31 11:37:44;;;;;;;11.00;2.53;;;;;;;5.19;47.06;99104.50;4453791;32;34470;-64
2022/01/31 11:40:14;;;;;;;14.15;2.92;;;;;;;5.18;46.82;99107.88;4453703;32;34077;-63
2022/01/31 11:42:44;;;;;;;13.07;2.78;;;;;;;5.42;46.11;99098.03;4450637;32;34473;-64
2022/01/31 11:45:15;;;;;;;11.30;2.83;;;;;;;5.13;46.93;99105.03;4450468;32;33868;-65
2022/01/31 11:47:49;;;;;;;11.77;3.28;;;;;;;5.07;46.92;99103.84;4450043;32;33887;-64
2022/01/31 11:50:19;;;;;;;13.10;2.97;;;;;;;5.04;47.15;99093.41;4448590;32;33269;-64
2022/01/31 11:52:49;;;;;;;17.02;3.12;;;;;;;5.34;46.50;99057.38;4450903;32;34585;-63
2022/01/31 11:55:19;;;;;;;15.25;3.08;;;;;;;5.17;46.65;99034.22;4446610;32;35506;-65
2022/01/31 11:57:50;;;;;;;17.45;3.30;;;;;;;5.65;45.84;99045.31;4447839;32;33423;-65
2022/01/31 12:00:20;;;;;;;14.18;3.30;;;;;;;5.77;45.60;99062.19;4449491;32;33348;-64
2022/01/31 12:02:54;;;;;;;9.57;3.05;;;;;;;5.71;45.81;99063.63;4440330;32;32393;-64
2022/01/31 12:05:25;;;;;;;14.20;3.67;;;;;;;5.89;45.65;99062.78;4453770;32;34655;-64